Drake Field Fayetteville US
ICAO: KFYV
IATA: FYV
Category: Medium
Scheduled Services: No

Elevation: 1251 ft
TransAlt. 18000 ft.

Airport Communications:
RAZORBACK APP/DEP:121
ATIS:133.1
CTAF:128
GND:121.8
JONESBORO RDO:122.3
TWR:128
UNICOM:122.95

KFYV Zoom In..

Runways:

(A) RW 16 length 6005 ft width 100 ft
LOC 111.90 / hdg 164

(B) RW 34 length 6005 ft width 100 ft
LOC 111.90 / hdg 344

Location; KFYV
Day. 24 / Time. 07.53 Zulu
* Altimeter: 30.10
* Temperature: 18° c. 64.4°f.
* Wind from: 070° Speed 03 kn.
Dewpoint: 18° c.
Visibility: 10 Statute Miles.
Clouds: Broken 11000 ft.

KFYV 240753Z AUTO 07003KT 10SM BKN110 18/18 A3010 RMK AO2 SLP184 T01830178


Wind From 070°
Speed 03 kn.

 
 
jpsmedia.com for Web Design SOUNDCLOUD worldairports.se 2018   terms of use